sensor_id;sensor_type;location;lat;lon;timestamp;pressure;altitude;pressure_sealevel;temperature
82638;BMP280;72318;36.628;-121.932;2024-02-26T00:02:58;101416.47;;;16.65
82638;BMP280;72318;36.628;-121.932;2024-02-26T00:07:58;101413.19;;;15.75
82638;BMP280;72318;36.628;-121.932;2024-02-26T00:12:59;101416.56;;;15.86
82638;BMP280;72318;36.628;-121.932;2024-02-26T00:18:01;101423.72;;;16.10
82638;BMP280;72318;36.628;-121.932;2024-02-26T00:23:01;101430.53;;;16.18
82638;BMP280;72318;36.628;-121.932;2024-02-26T00:28:02;101426.88;;;15.84
82638;BMP280;72318;36.628;-121.932;2024-02-26T00:33:03;101434.75;;;16.19
82638;BMP280;72318;36.628;-121.932;2024-02-26T00:38:04;101422.13;;;16.81
82638;BMP280;72318;36.628;-121.932;2024-02-26T00:43:05;101444.28;;;16.78
82638;BMP280;72318;36.628;-121.932;2024-02-26T00:48:06;101443.81;;;16.35
82638;BMP280;72318;36.628;-121.932;2024-02-26T00:53:07;101453.69;;;15.67
82638;BMP280;72318;36.628;-121.932;2024-02-26T00:58:08;101451.38;;;15.62
82638;BMP280;72318;36.628;-121.932;2024-02-26T01:03:09;101470.44;;;15.71
82638;BMP280;72318;36.628;-121.932;2024-02-26T01:08:10;101478.16;;;15.51
82638;BMP280;72318;36.628;-121.932;2024-02-26T01:13:11;101482.66;;;15.72
82638;BMP280;72318;36.628;-121.932;2024-02-26T01:18:12;101491.88;;;15.46
82638;BMP280;72318;36.628;-121.932;2024-02-26T01:23:13;101496.88;;;15.48
82638;BMP280;72318;36.628;-121.932;2024-02-26T01:28:14;101513.28;;;15.08
82638;BMP280;72318;36.628;-121.932;2024-02-26T01:33:15;101516.59;;;16.03
82638;BMP280;72318;36.628;-121.932;2024-02-26T01:38:16;101506.75;;;15.54
82638;BMP280;72318;36.628;-121.932;2024-02-26T01:43:17;101509.03;;;15.66
82638;BMP280;72318;36.628;-121.932;2024-02-26T01:48:18;101522.44;;;15.49
82638;BMP280;72318;36.628;-121.932;2024-02-26T01:53:19;101525.94;;;16.52
82638;BMP280;72318;36.628;-121.932;2024-02-26T01:58:20;101531.59;;;15.55
82638;BMP280;72318;36.628;-121.932;2024-02-26T02:03:21;101552.53;;;14.90
82638;BMP280;72318;36.628;-121.932;2024-02-26T02:08:23;101557.47;;;14.85
82638;BMP280;72318;36.628;-121.932;2024-02-26T02:13:24;101556.03;;;15.32
82638;BMP280;72318;36.628;-121.932;2024-02-26T02:18:24;101555.56;;;14.82
82638;BMP280;72318;36.628;-121.932;2024-02-26T02:23:25;101556.69;;;14.70
82638;BMP280;72318;36.628;-121.932;2024-02-26T02:28:27;101555.19;;;14.97
82638;BMP280;72318;36.628;-121.932;2024-02-26T02:33:28;101548.16;;;14.44
82638;BMP280;72318;36.628;-121.932;2024-02-26T02:38:29;101549.09;;;14.97
82638;BMP280;72318;36.628;-121.932;2024-02-26T02:43:30;101562.31;;;14.48
82638;BMP280;72318;36.628;-121.932;2024-02-26T02:48:31;101548.13;;;14.30
82638;BMP280;72318;36.628;-121.932;2024-02-26T02:53:31;101551.91;;;14.32
82638;BMP280;72318;36.628;-121.932;2024-02-26T02:58:32;101540.13;;;14.37
82638;BMP280;72318;36.628;-121.932;2024-02-26T03:03:33;101537.25;;;13.95
82638;BMP280;72318;36.628;-121.932;2024-02-26T03:08:34;101545.25;;;13.95
82638;BMP280;72318;36.628;-121.932;2024-02-26T03:13:35;101553.25;;;13.95
82638;BMP280;72318;36.628;-121.932;2024-02-26T03:18:35;101548.88;;;13.70
82638;BMP280;72318;36.628;-121.932;2024-02-26T03:23:37;101550.75;;;13.73
82638;BMP280;72318;36.628;-121.932;2024-02-26T03:28:37;101562.63;;;13.79
82638;BMP280;72318;36.628;-121.932;2024-02-26T03:33:38;101574.44;;;13.81
82638;BMP280;72318;36.628;-121.932;2024-02-26T03:38:40;101582.31;;;13.67
82638;BMP280;72318;36.628;-121.932;2024-02-26T03:43:41;101585.84;;;13.78
82638;BMP280;72318;36.628;-121.932;2024-02-26T03:48:41;101583.56;;;13.80
82638;BMP280;72318;36.628;-121.932;2024-02-26T03:53:42;101590.13;;;13.90
82638;BMP280;72318;36.628;-121.932;2024-02-26T03:58:43;101599.38;;;14.06
82638;BMP280;72318;36.628;-121.932;2024-02-26T04:03:44;101602.78;;;14.03
82638;BMP280;72318;36.628;-121.932;2024-02-26T04:08:48;101607.47;;;14.24
82638;BMP280;72318;36.628;-121.932;2024-02-26T04:13:48;101603.28;;;14.19
82638;BMP280;72318;36.628;-121.932;2024-02-26T04:18:49;101604.41;;;14.18
82638;BMP280;72318;36.628;-121.932;2024-02-26T04:23:50;101607.47;;;13.70
82638;BMP280;72318;36.628;-121.932;2024-02-26T04:28:51;101613.88;;;13.62
82638;BMP280;72318;36.628;-121.932;2024-02-26T04:33:52;101614.75;;;13.33
82638;BMP280;72318;36.628;-121.932;2024-02-26T04:38:52;101612.81;;;13.33
82638;BMP280;72318;36.628;-121.932;2024-02-26T04:43:53;101616.91;;;13.24
82638;BMP280;72318;36.628;-121.932;2024-02-26T04:48:54;101619.50;;;13.53
82638;BMP280;72318;36.628;-121.932;2024-02-26T04:53:55;101644.81;;;13.73
82638;BMP280;72318;36.628;-121.932;2024-02-26T04:58:56;101645.25;;;13.42
82638;BMP280;72318;36.628;-121.932;2024-02-26T05:03:56;101652.88;;;13.44
82638;BMP280;72318;36.628;-121.932;2024-02-26T05:08:57;101645.19;;;13.35
82638;BMP280;72318;36.628;-121.932;2024-02-26T05:13:58;101646.63;;;13.29
82638;BMP280;72318;36.628;-121.932;2024-02-26T05:18:59;101654.47;;;13.16
82638;BMP280;72318;36.628;-121.932;2024-02-26T05:24:09;101665.19;;;12.93
82638;BMP280;72318;36.628;-121.932;2024-02-26T05:29:09;101657.13;;;12.86
82638;BMP280;72318;36.628;-121.932;2024-02-26T05:34:13;101658.66;;;12.58
82638;BMP280;72318;36.628;-121.932;2024-02-26T05:39:14;101655.97;;;13.17
82638;BMP280;72318;36.628;-121.932;2024-02-26T05:44:15;101648.00;;;12.84
82638;BMP280;72318;36.628;-121.932;2024-02-26T05:49:16;101657.78;;;12.80
82638;BMP280;72318;36.628;-121.932;2024-02-26T05:54:17;101654.97;;;12.95
82638;BMP280;72318;36.628;-121.932;2024-02-26T05:59:17;101650.84;;;12.72
82638;BMP280;72318;36.628;-121.932;2024-02-26T06:04:18;101655.13;;;12.76
82638;BMP280;72318;36.628;-121.932;2024-02-26T06:09:19;101662.84;;;13.18
82638;BMP280;72318;36.628;-121.932;2024-02-26T06:14:20;101656.44;;;13.22
82638;BMP280;72318;36.628;-121.932;2024-02-26T06:19:21;101662.03;;;13.14
82638;BMP280;72318;36.628;-121.932;2024-02-26T06:24:22;101668.81;;;13.08
82638;BMP280;72318;36.628;-121.932;2024-02-26T06:29:22;101668.16;;;12.85
82638;BMP280;72318;36.628;-121.932;2024-02-26T06:34:23;101661.41;;;12.91
82638;BMP280;72318;36.628;-121.932;2024-02-26T06:39:24;101660.72;;;12.97
82638;BMP280;72318;36.628;-121.932;2024-02-26T06:44:25;101664.16;;;13.01
82638;BMP280;72318;36.628;-121.932;2024-02-26T06:49:26;101669.63;;;12.82
82638;BMP280;72318;36.628;-121.932;2024-02-26T06:54:27;101669.78;;;12.67
82638;BMP280;72318;36.628;-121.932;2024-02-26T06:59:28;101667.28;;;12.77
82638;BMP280;72318;36.628;-121.932;2024-02-26T07:04:29;101673.06;;;12.83
82638;BMP280;72318;36.628;-121.932;2024-02-26T07:09:30;101663.84;;;12.77
82638;BMP280;72318;36.628;-121.932;2024-02-26T07:14:31;101658.00;;;12.94
82638;BMP280;72318;36.628;-121.932;2024-02-26T07:19:32;101649.91;;;12.87
82638;BMP280;72318;36.628;-121.932;2024-02-26T07:24:32;101643.16;;;12.93
82638;BMP280;72318;36.628;-121.932;2024-02-26T07:29:33;101644.16;;;12.55
82638;BMP280;72318;36.628;-121.932;2024-02-26T07:34:34;101650.13;;;13.04
82638;BMP280;72318;36.628;-121.932;2024-02-26T07:39:35;101654.19;;;12.95
82638;BMP280;72318;36.628;-121.932;2024-02-26T07:44:36;101642.09;;;12.45
82638;BMP280;72318;36.628;-121.932;2024-02-26T07:49:36;101622.91;;;12.33
82638;BMP280;72318;36.628;-121.932;2024-02-26T07:54:37;101623.22;;;12.50
82638;BMP280;72318;36.628;-121.932;2024-02-26T07:59:40;101636.88;;;12.52
82638;BMP280;72318;36.628;-121.932;2024-02-26T08:04:41;101643.28;;;12.48
82638;BMP280;72318;36.628;-121.932;2024-02-26T08:09:42;101647.53;;;12.52
82638;BMP280;72318;36.628;-121.932;2024-02-26T08:14:43;101629.56;;;12.20
82638;BMP280;72318;36.628;-121.932;2024-02-26T08:19:44;101628.53;;;12.25
82638;BMP280;72318;36.628;-121.932;2024-02-26T08:24:45;101626.94;;;12.46
82638;BMP280;72318;36.628;-121.932;2024-02-26T08:29:45;101630.22;;;12.36
82638;BMP280;72318;36.628;-121.932;2024-02-26T08:34:46;101609.50;;;12.48
82638;BMP280;72318;36.628;-121.932;2024-02-26T08:39:47;101593.03;;;12.39
82638;BMP280;72318;36.628;-121.932;2024-02-26T08:44:48;101590.34;;;12.36
82638;BMP280;72318;36.628;-121.932;2024-02-26T08:49:49;101578.84;;;12.32
82638;BMP280;72318;36.628;-121.932;2024-02-26T08:54:50;101570.50;;;12.30
82638;BMP280;72318;36.628;-121.932;2024-02-26T08:59:50;101567.66;;;12.45
82638;BMP280;72318;36.628;-121.932;2024-02-26T09:04:51;101544.19;;;12.22
82638;BMP280;72318;36.628;-121.932;2024-02-26T09:09:52;101554.47;;;12.26
82638;BMP280;72318;36.628;-121.932;2024-02-26T09:14:53;101571.22;;;12.27
82638;BMP280;72318;36.628;-121.932;2024-02-26T09:19:54;101570.38;;;12.23
82638;BMP280;72318;36.628;-121.932;2024-02-26T09:24:55;101570.50;;;12.30
82638;BMP280;72318;36.628;-121.932;2024-02-26T09:29:56;101560.47;;;12.20
82638;BMP280;72318;36.628;-121.932;2024-02-26T09:34:56;101542.88;;;12.12
82638;BMP280;72318;36.628;-121.932;2024-02-26T09:39:57;101535.97;;;12.33
82638;BMP280;72318;36.628;-121.932;2024-02-26T09:45:00;101552.50;;;12.20
82638;BMP280;72318;36.628;-121.932;2024-02-26T09:50:01;101546.00;;;12.18
82638;BMP280;72318;36.628;-121.932;2024-02-26T09:55:04;101553.56;;;12.16
82638;BMP280;72318;36.628;-121.932;2024-02-26T10:00:08;101549.81;;;11.94
82638;BMP280;72318;36.628;-121.932;2024-02-26T10:05:12;101532.34;;;12.19
82638;BMP280;72318;36.628;-121.932;2024-02-26T10:10:15;101504.88;;;12.08
82638;BMP280;72318;36.628;-121.932;2024-02-26T10:15:17;101513.47;;;12.27
82638;BMP280;72318;36.628;-121.932;2024-02-26T10:20:19;101506.53;;;12.20
82638;BMP280;72318;36.628;-121.932;2024-02-26T10:25:20;101509.69;;;11.99
82638;BMP280;72318;36.628;-121.932;2024-02-26T10:30:22;101496.34;;;12.22
82638;BMP280;72318;36.628;-121.932;2024-02-26T10:35:23;101504.66;;;12.20
82638;BMP280;72318;36.628;-121.932;2024-02-26T10:40:24;101504.50;;;12.10
82638;BMP280;72318;36.628;-121.932;2024-02-26T10:45:25;101508.91;;;11.99
82638;BMP280;72318;36.628;-121.932;2024-02-26T10:50:26;101510.69;;;11.91
82638;BMP280;72318;36.628;-121.932;2024-02-26T10:55:27;101512.34;;;11.77
82638;BMP280;72318;36.628;-121.932;2024-02-26T11:00:28;101503.69;;;12.06
82638;BMP280;72318;36.628;-121.932;2024-02-26T11:05:30;101515.72;;;11.74
82638;BMP280;72318;36.628;-121.932;2024-02-26T11:10:31;101520.94;;;11.67
82638;BMP280;72318;36.628;-121.932;2024-02-26T11:15:33;101531.63;;;11.70
82638;BMP280;72318;36.628;-121.932;2024-02-26T11:20:34;101528.97;;;11.48
82638;BMP280;72318;36.628;-121.932;2024-02-26T11:25:39;101522.28;;;11.57
82638;BMP280;72318;36.628;-121.932;2024-02-26T11:30:44;101526.91;;;11.60
82638;BMP280;72318;36.628;-121.932;2024-02-26T11:35:46;101526.19;;;11.63
82638;BMP280;72318;36.628;-121.932;2024-02-26T11:40:46;101528.59;;;11.72
82638;BMP280;72318;36.628;-121.932;2024-02-26T11:45:49;101521.13;;;11.55
82638;BMP280;72318;36.628;-121.932;2024-02-26T11:50:54;101522.78;;;11.21
82638;BMP280;72318;36.628;-121.932;2024-02-26T12:01:43;101508.19;;;11.53
82638;BMP280;72318;36.628;-121.932;2024-02-26T12:06:45;101502.56;;;11.36
82638;BMP280;72318;36.628;-121.932;2024-02-26T12:11:47;101512.41;;;11.54
82638;BMP280;72318;36.628;-121.932;2024-02-26T12:16:48;101516.28;;;11.60
82638;BMP280;72318;36.628;-121.932;2024-02-26T12:21:52;101492.50;;;11.45
82638;BMP280;72318;36.628;-121.932;2024-02-26T12:26:53;101478.88;;;11.95
82638;BMP280;72318;36.628;-121.932;2024-02-26T12:31:54;101473.19;;;11.96
82638;BMP280;72318;36.628;-121.932;2024-02-26T12:36:55;101472.28;;;11.63
82638;BMP280;72318;36.628;-121.932;2024-02-26T12:41:58;101461.53;;;11.52
82638;BMP280;72318;36.628;-121.932;2024-02-26T12:47:02;101454.03;;;11.58
82638;BMP280;72318;36.628;-121.932;2024-02-26T12:52:05;101441.06;;;11.79
82638;BMP280;72318;36.628;-121.932;2024-02-26T12:57:06;101441.59;;;11.62
82638;BMP280;72318;36.628;-121.932;2024-02-26T13:02:09;101432.34;;;11.52
82638;BMP280;72318;36.628;-121.932;2024-02-26T13:07:10;101433.09;;;11.79
82638;BMP280;72318;36.628;-121.932;2024-02-26T13:12:12;101420.38;;;11.65
82638;BMP280;72318;36.628;-121.932;2024-02-26T13:17:13;101414.50;;;11.53
82638;BMP280;72318;36.628;-121.932;2024-02-26T13:22:14;101420.72;;;11.60
82638;BMP280;72318;36.628;-121.932;2024-02-26T13:27:21;101422.94;;;11.58
82638;BMP280;72318;36.628;-121.932;2024-02-26T13:32:22;101453.72;;;11.40
82638;BMP280;72318;36.628;-121.932;2024-02-26T13:37:23;101441.78;;;11.27
82638;BMP280;72318;36.628;-121.932;2024-02-26T13:42:24;101453.69;;;11.37
82638;BMP280;72318;36.628;-121.932;2024-02-26T13:47:25;101432.50;;;11.40
82638;BMP280;72318;36.628;-121.932;2024-02-26T13:52:26;101426.78;;;11.61
82638;BMP280;72318;36.628;-121.932;2024-02-26T13:57:26;101437.88;;;11.70
82638;BMP280;72318;36.628;-121.932;2024-02-26T14:02:27;101430.31;;;11.46
82638;BMP280;72318;36.628;-121.932;2024-02-26T14:07:28;101428.22;;;11.58
82638;BMP280;72318;36.628;-121.932;2024-02-26T14:12:29;101429.44;;;11.61
82638;BMP280;72318;36.628;-121.932;2024-02-26T14:17:30;101426.09;;;11.67
82638;BMP280;72318;36.628;-121.932;2024-02-26T14:22:31;101436.00;;;11.22
82638;BMP280;72318;36.628;-121.932;2024-02-26T14:27:32;101429.50;;;11.19
82638;BMP280;72318;36.628;-121.932;2024-02-26T14:32:32;101436.66;;;11.64
82638;BMP280;72318;36.628;-121.932;2024-02-26T14:37:33;101452.66;;;11.22
82638;BMP280;72318;36.628;-121.932;2024-02-26T14:42:34;101472.66;;;10.94
82638;BMP280;72318;36.628;-121.932;2024-02-26T14:47:35;101458.09;;;11.29
82638;BMP280;72318;36.628;-121.932;2024-02-26T14:52:36;101466.06;;;11.52
82638;BMP280;72318;36.628;-121.932;2024-02-26T14:57:37;101475.88;;;11.48
82638;BMP280;72318;36.628;-121.932;2024-02-26T15:02:37;101474.22;;;11.88
82638;BMP280;72318;36.628;-121.932;2024-02-26T15:07:38;101469.25;;;11.87
82638;BMP280;72318;36.628;-121.932;2024-02-26T15:12:39;101482.03;;;11.78
82638;BMP280;72318;36.628;-121.932;2024-02-26T15:17:40;101484.31;;;12.05
82638;BMP280;72318;36.628;-121.932;2024-02-26T15:22:41;101484.19;;;11.95
82638;BMP280;72318;36.628;-121.932;2024-02-26T15:27:42;101493.97;;;12.17
82638;BMP280;72318;36.628;-121.932;2024-02-26T15:32:42;101503.72;;;12.35
82638;BMP280;72318;36.628;-121.932;2024-02-26T15:37:43;101501.69;;;12.54
82638;BMP280;72318;36.628;-121.932;2024-02-26T15:42:45;101504.16;;;12.70
82638;BMP280;72318;36.628;-121.932;2024-02-26T15:47:46;101498.50;;;12.75
82638;BMP280;72318;36.628;-121.932;2024-02-26T15:52:47;101504.59;;;12.79
82638;BMP280;72318;36.628;-121.932;2024-02-26T15:57:48;101514.88;;;13.17
82638;BMP280;72318;36.628;-121.932;2024-02-26T16:02:49;101522.41;;;13.08
82638;BMP280;72318;36.628;-121.932;2024-02-26T16:07:53;101515.94;;;13.48
82638;BMP280;72318;36.628;-121.932;2024-02-26T16:12:59;101507.25;;;13.12
82638;BMP280;72318;36.628;-121.932;2024-02-26T16:18:00;101508.00;;;13.52
82638;BMP280;72318;36.628;-121.932;2024-02-26T16:23:01;101501.16;;;13.51
82638;BMP280;72318;36.628;-121.932;2024-02-26T16:28:02;101501.59;;;13.63
82638;BMP280;72318;36.628;-121.932;2024-02-26T16:33:03;101502.09;;;13.79
82638;BMP280;72318;36.628;-121.932;2024-02-26T16:38:04;101507.94;;;13.95
82638;BMP280;72318;36.628;-121.932;2024-02-26T16:43:05;101512.06;;;13.93
82638;BMP280;72318;36.628;-121.932;2024-02-26T16:48:06;101521.53;;;13.87
82638;BMP280;72318;36.628;-121.932;2024-02-26T16:53:07;101530.13;;;14.20
82638;BMP280;72318;36.628;-121.932;2024-02-26T16:58:08;101538.13;;;14.13
82638;BMP280;72318;36.628;-121.932;2024-02-26T17:03:09;101563.69;;;14.28
82638;BMP280;72318;36.628;-121.932;2024-02-26T17:08:10;101567.88;;;14.22
82638;BMP280;72318;36.628;-121.932;2024-02-26T17:13:11;101574.63;;;14.02
82638;BMP280;72318;36.628;-121.932;2024-02-26T17:18:14;101584.66;;;13.72
82638;BMP280;72318;36.628;-121.932;2024-02-26T17:23:15;101592.41;;;13.91
82638;BMP280;72318;36.628;-121.932;2024-02-26T17:28:16;101617.91;;;13.89
82638;BMP280;72318;36.628;-121.932;2024-02-26T17:33:17;101627.03;;;13.91
82638;BMP280;72318;36.628;-121.932;2024-02-26T17:38:18;101618.88;;;14.21
82638;BMP280;72318;36.628;-121.932;2024-02-26T17:43:18;101613.34;;;14.46
82638;BMP280;72318;36.628;-121.932;2024-02-26T17:48:19;101592.53;;;14.76
82638;BMP280;72318;36.628;-121.932;2024-02-26T17:53:21;101579.28;;;15.25
82638;BMP280;72318;36.628;-121.932;2024-02-26T17:58:22;101561.69;;;15.97
82638;BMP280;72318;36.628;-121.932;2024-02-26T18:03:23;101556.31;;;16.93
82638;BMP280;72318;36.628;-121.932;2024-02-26T18:08:24;101545.09;;;16.47
82638;BMP280;72318;36.628;-121.932;2024-02-26T18:13:24;101538.03;;;15.82
82638;BMP280;72318;36.628;-121.932;2024-02-26T18:18:25;101541.31;;;16.31
82638;BMP280;72318;36.628;-121.932;2024-02-26T18:23:26;101527.84;;;17.16
82638;BMP280;72318;36.628;-121.932;2024-02-26T18:28:27;101514.50;;;17.46
82638;BMP280;72318;36.628;-121.932;2024-02-26T18:33:28;101494.94;;;18.46
82638;BMP280;72318;36.628;-121.932;2024-02-26T18:38:28;101514.78;;;18.52
82638;BMP280;72318;36.628;-121.932;2024-02-26T18:43:29;101513.06;;;16.23
82638;BMP280;72318;36.628;-121.932;2024-02-26T18:48:30;101495.25;;;18.74
82638;BMP280;72318;36.628;-121.932;2024-02-26T18:53:31;101483.91;;;19.70
82638;BMP280;72318;36.628;-121.932;2024-02-26T18:58:32;101492.53;;;17.95
82638;BMP280;72318;36.628;-121.932;2024-02-26T19:03:33;101493.66;;;18.27
82638;BMP280;72318;36.628;-121.932;2024-02-26T19:08:34;101481.53;;;17.86
82638;BMP280;72318;36.628;-121.932;2024-02-26T19:13:35;101466.38;;;17.32
82638;BMP280;72318;36.628;-121.932;2024-02-26T19:18:36;101454.53;;;18.26
82638;BMP280;72318;36.628;-121.932;2024-02-26T19:23:38;101455.06;;;18.18
82638;BMP280;72318;36.628;-121.932;2024-02-26T19:28:39;101448.19;;;17.87
82638;BMP280;72318;36.628;-121.932;2024-02-26T19:33:40;101441.34;;;19.46
82638;BMP280;72318;36.628;-121.932;2024-02-26T19:38:41;101442.78;;;20.05
82638;BMP280;72318;36.628;-121.932;2024-02-26T19:43:42;101435.88;;;20.04
82638;BMP280;72318;36.628;-121.932;2024-02-26T19:48:43;101432.47;;;18.38
82638;BMP280;72318;36.628;-121.932;2024-02-26T19:53:45;101437.81;;;19.49
82638;BMP280;72318;36.628;-121.932;2024-02-26T19:58:46;101433.25;;;18.65
82638;BMP280;72318;36.628;-121.932;2024-02-26T20:03:47;101426.03;;;18.81
82638;BMP280;72318;36.628;-121.932;2024-02-26T20:08:48;101425.03;;;19.18
82638;BMP280;72318;36.628;-121.932;2024-02-26T20:13:49;101419.38;;;18.67
82638;BMP280;72318;36.628;-121.932;2024-02-26T20:18:50;101424.44;;;20.00
82638;BMP280;72318;36.628;-121.932;2024-02-26T20:23:50;101433.66;;;19.06
82638;BMP280;72318;36.628;-121.932;2024-02-26T20:28:51;101441.75;;;18.11
82638;BMP280;72318;36.628;-121.932;2024-02-26T20:33:52;101448.94;;;17.17
82638;BMP280;72318;36.628;-121.932;2024-02-26T20:38:53;101446.66;;;16.69
82638;BMP280;72318;36.628;-121.932;2024-02-26T20:43:54;101445.06;;;17.25
82638;BMP280;72318;36.628;-121.932;2024-02-26T20:48:55;101443.94;;;16.21
82638;BMP280;72318;36.628;-121.932;2024-02-26T20:53:55;101435.31;;;17.02
82638;BMP280;72318;36.628;-121.932;2024-02-26T20:58:56;101421.69;;;17.26
82638;BMP280;72318;36.628;-121.932;2024-02-26T21:03:57;101417.47;;;16.85
82638;BMP280;72318;36.628;-121.932;2024-02-26T21:08:58;101433.13;;;16.90
82638;BMP280;72318;36.628;-121.932;2024-02-26T21:13:59;101426.00;;;17.16
82638;BMP280;72318;36.628;-121.932;2024-02-26T21:18:59;101409.59;;;17.07
82638;BMP280;72318;36.628;-121.932;2024-02-26T21:24:03;101397.66;;;17.15
82638;BMP280;72318;36.628;-121.932;2024-02-26T21:29:04;101390.19;;;17.33
82638;BMP280;72318;36.628;-121.932;2024-02-26T21:34:05;101392.72;;;16.70
82638;BMP280;72318;36.628;-121.932;2024-02-26T21:39:06;101385.69;;;16.87
82638;BMP280;72318;36.628;-121.932;2024-02-26T21:44:06;101388.09;;;17.48
82638;BMP280;72318;36.628;-121.932;2024-02-26T21:49:07;101384.09;;;16.96
82638;BMP280;72318;36.628;-121.932;2024-02-26T21:54:08;101379.97;;;16.85
82638;BMP280;72318;36.628;-121.932;2024-02-26T21:59:09;101373.78;;;17.31
82638;BMP280;72318;36.628;-121.932;2024-02-26T22:04:10;101386.44;;;16.91
82638;BMP280;72318;36.628;-121.932;2024-02-26T22:09:11;101376.81;;;16.97
82638;BMP280;72318;36.628;-121.932;2024-02-26T22:14:12;101376.38;;;17.68
82638;BMP280;72318;36.628;-121.932;2024-02-26T22:19:13;101375.13;;;18.02
82638;BMP280;72318;36.628;-121.932;2024-02-26T22:24:14;101371.59;;;17.19
82638;BMP280;72318;36.628;-121.932;2024-02-26T22:29:14;101382.84;;;17.04
82638;BMP280;72318;36.628;-121.932;2024-02-26T22:34:15;101381.66;;;17.08
82638;BMP280;72318;36.628;-121.932;2024-02-26T22:39:16;101371.53;;;17.56
82638;BMP280;72318;36.628;-121.932;2024-02-26T22:44:17;101362.56;;;17.70
82638;BMP280;72318;36.628;-121.932;2024-02-26T22:49:17;101349.94;;;17.37
82638;BMP280;72318;36.628;-121.932;2024-02-26T22:54:18;101340.66;;;16.75
82638;BMP280;72318;36.628;-121.932;2024-02-26T22:59:19;101333.66;;;17.54
82638;BMP280;72318;36.628;-121.932;2024-02-26T23:04:20;101323.97;;;17.01
82638;BMP280;72318;36.628;-121.932;2024-02-26T23:09:22;101327.28;;;16.75
82638;BMP280;72318;36.628;-121.932;2024-02-26T23:14:22;101308.03;;;15.92
82638;BMP280;72318;36.628;-121.932;2024-02-26T23:19:23;101287.06;;;16.82
82638;BMP280;72318;36.628;-121.932;2024-02-26T23:24:24;101288.31;;;16.23
82638;BMP280;72318;36.628;-121.932;2024-02-26T23:29:25;101291.94;;;16.03
82638;BMP280;72318;36.628;-121.932;2024-02-26T23:34:26;101291.88;;;16.97
82638;BMP280;72318;36.628;-121.932;2024-02-26T23:39:26;101303.00;;;16.92
82638;BMP280;72318;36.628;-121.932;2024-02-26T23:44:27;101299.97;;;16.90
82638;BMP280;72318;36.628;-121.932;2024-02-26T23:49:28;101293.63;;;16.77
82638;BMP280;72318;36.628;-121.932;2024-02-26T23:54:29;101292.63;;;16.61
82638;BMP280;72318;36.628;-121.932;2024-02-26T23:59:30;101297.59;;;16.96
